Time;durP1;ratioP1;P1;durP2;ratioP2;P2;SDS_P1;SDS_P2;PMS_P1;PMS_P2;Temp;Humidity;BMP_temperature;BMP_pressure;BME280_temperature;BME280_humidity;BME280_pressure;Samples;Min_cycle;Max_cycle;Signal;HPM_P1;HPM_P2
2022/03/05 00:01:51;;;;;;;14.93;7.80;;;-0.70;99.90;;;;;;5024922;28;20494;-49
2022/03/05 00:04:18;;;;;;;13.63;8.03;;;-0.70;1.40;;;;;;5025885;28;20537;-49
2022/03/05 00:06:44;;;;;;;12.90;8.00;;;-0.80;99.90;;;;;;5027969;28;20944;-49
2022/03/05 00:09:11;;;;;;;10.00;6.97;;;-0.80;99.90;;;;;;5026590;28;20479;-49
2022/03/05 00:11:38;;;;;;;12.40;7.20;;;-0.80;99.90;;;;;;5029024;28;20497;-50
2022/03/05 00:14:07;;;;;;;9.90;7.83;;;-0.80;99.90;;;;;;5029741;28;20478;-50
2022/03/05 00:16:34;;;;;;;8.67;7.40;;;-0.80;99.90;;;;;;5025021;28;20455;-50
2022/03/05 00:19:00;;;;;;;10.03;6.70;;;-0.90;99.90;;;;;;5028128;28;20455;-50
2022/03/05 00:21:27;;;;;;;8.53;5.93;;;-0.90;99.90;;;;;;5022388;28;20519;-50
2022/03/05 00:23:53;;;;;;;8.40;5.90;;;-1.00;99.90;;;;;;5028989;28;20533;-50
2022/03/05 00:26:20;;;;;;;11.80;6.43;;;-0.90;99.90;;;;;;5031011;28;20513;-49
2022/03/05 00:28:47;;;;;;;7.17;5.27;;;-1.00;99.90;;;;;;5023048;28;20462;-50
2022/03/05 00:31:16;;;;;;;7.20;5.13;;;-1.10;99.90;;;;;;5027257;28;20463;-50
2022/03/05 00:33:42;;;;;;;6.33;5.20;;;-1.20;99.90;;;;;;5028568;28;21046;-49
2022/03/05 00:36:09;;;;;;;7.33;4.87;;;-1.10;99.90;;;;;;5030198;28;20458;-50
2022/03/05 00:38:35;;;;;;;4.83;4.40;;;-1.20;99.90;;;;;;5028975;28;20466;-50
2022/03/05 00:41:02;;;;;;;9.33;5.97;;;-1.20;99.90;;;;;;5023913;28;20508;-50
2022/03/05 00:43:28;;;;;;;4.40;4.00;;;-1.20;99.90;;;;;;5029720;28;20482;-50
2022/03/05 00:45:55;;;;;;;6.13;3.63;;;-1.20;99.90;;;;;;5028272;28;20467;-50
2022/03/05 00:48:23;;;;;;;8.33;5.00;;;-1.20;99.90;;;;;;5025971;28;20874;-50
2022/03/05 00:50:50;;;;;;;4.67;4.27;;;-1.20;99.90;;;;;;5021828;28;20487;-49
2022/03/05 00:53:17;;;;;;;4.73;4.00;;;-1.20;99.90;;;;;;5029933;28;20487;-50
2022/03/05 00:55:44;;;;;;;6.30;4.03;;;-1.30;99.90;;;;;;5030593;28;20486;-49
2022/03/05 00:58:10;;;;;;;5.50;4.27;;;-1.30;99.90;;;;;;5026984;28;20458;-51
2022/03/05 01:00:37;;;;;;;6.47;4.20;;;-1.40;99.90;;;;;;5027548;28;20861;-52
2022/03/05 01:03:04;;;;;;;5.63;3.90;;;-1.40;99.90;;;;;;5026299;28;20486;-50
2022/03/05 01:05:32;;;;;;;6.33;3.67;;;-1.40;99.90;;;;;;5027922;28;20591;-50
2022/03/05 01:07:59;;;;;;;9.30;3.70;;;-1.40;99.90;;;;;;5027135;28;20459;-50
2022/03/05 01:10:26;;;;;;;6.50;3.87;;;-1.40;98.50;;;;;;5028163;28;20495;-51
2022/03/05 01:12:52;;;;;;;4.23;3.70;;;-1.40;99.90;;;;;;5030122;28;20486;-50
2022/03/05 01:15:19;;;;;;;5.13;3.90;;;-1.40;99.90;;;;;;5031396;28;20520;-50
2022/03/05 01:17:45;;;;;;;4.37;3.70;;;-1.40;99.90;;;;;;5030730;28;20892;-51
2022/03/05 01:20:12;;;;;;;5.23;4.13;;;-1.40;99.90;;;;;;5027131;28;20463;-49
2022/03/05 01:22:40;;;;;;;6.23;4.13;;;-1.40;99.90;;;;;;5031565;28;20463;-51
2022/03/05 01:25:08;;;;;;;5.20;3.90;;;-1.40;99.90;;;;;;5031423;28;20463;-51
2022/03/05 01:27:34;;;;;;;5.70;4.17;;;-1.50;99.90;;;;;;5030516;28;20520;-50
2022/03/05 01:30:01;;;;;;;4.30;3.90;;;-1.50;99.90;;;;;;5029917;28;20505;-50
2022/03/05 01:32:27;;;;;;;4.83;4.03;;;-1.50;96.20;;;;;;5028893;28;20509;-50
2022/03/05 01:34:54;;;;;;;4.23;3.93;;;-1.60;92.10;;;;;;5031601;28;20986;-50
2022/03/05 01:37:21;;;;;;;4.27;3.80;;;-1.60;94.90;;;;;;5027035;28;20458;-50
2022/03/05 01:39:49;;;;;;;5.33;3.93;;;-1.60;89.40;;;;;;5024628;28;20455;-50
2022/03/05 01:42:19;;;;;;;4.80;3.80;;;-1.60;97.50;;;;;;5033462;28;20458;-51
2022/03/05 01:44:46;;;;;;;6.70;4.20;;;-1.70;99.90;;;;;;5032827;28;20474;-50
2022/03/05 01:47:12;;;;;;;5.93;4.20;;;-1.70;99.90;;;;;;5031876;28;20513;-50
2022/03/05 01:49:39;;;;;;;5.70;3.77;;;-1.70;94.10;;;;;;5030059;28;20596;-50
2022/03/05 01:52:06;;;;;;;4.17;3.70;;;-1.70;99.90;;;;;;5026238;28;20976;-49
2022/03/05 01:54:33;;;;;;;6.13;3.27;;;-1.70;98.10;;;;;;5027651;28;20541;-50
2022/03/05 01:57:02;;;;;;;3.60;3.20;;;-1.80;93.50;;;;;;5030894;28;20475;-49
2022/03/05 01:59:29;;;;;;;5.93;3.50;;;-1.80;93.20;;;;;;5028315;28;20454;-49
2022/03/05 02:01:55;;;;;;;3.60;3.30;;;-1.90;87.90;;;;;;5030138;28;20517;-49
2022/03/05 02:04:22;;;;;;;4.87;3.67;;;-1.90;84.60;;;;;;5025739;28;20487;-49
2022/03/05 02:06:50;;;;;;;4.50;3.90;;;-1.90;89.50;;;;;;5030967;28;20541;-49
2022/03/05 02:09:17;;;;;;;5.63;3.47;;;-1.90;86.80;;;;;;5029535;28;20455;-49
2022/03/05 02:11:43;;;;;;;4.00;3.70;;;-1.90;76.70;;;;;;5031697;28;20463;-49
2022/03/05 02:14:11;;;;;;;6.00;3.40;;;-1.80;68.00;;;;;;5030858;28;20536;-51
2022/03/05 02:16:38;;;;;;;3.63;3.33;;;-1.90;59.40;;;;;;5027415;28;20463;-50
2022/03/05 02:19:05;;;;;;;6.47;4.00;;;-1.90;62.20;;;;;;5027860;28;20459;-50
2022/03/05 02:21:33;;;;;;;4.03;3.40;;;-2.00;73.60;;;;;;5030931;28;20467;-50
2022/03/05 02:24:00;;;;;;;3.53;3.20;;;-2.00;67.60;;;;;;5031922;28;20541;-48
2022/03/05 02:26:26;;;;;;;3.90;3.53;;;-2.10;58.60;;;;;;5028297;28;20467;-50
2022/03/05 02:28:53;;;;;;;6.67;3.67;;;-2.10;56.00;;;;;;5031437;28;21079;-50
2022/03/05 02:31:20;;;;;;;4.33;3.17;;;-2.10;51.40;;;;;;5032957;28;20505;-51
2022/03/05 02:33:47;;;;;;;7.70;4.00;;;-2.10;44.80;;;;;;5030576;28;20515;-51
2022/03/05 02:36:13;;;;;;;3.27;3.00;;;-2.10;46.60;;;;;;5031008;28;20463;-51
2022/03/05 02:38:41;;;;;;;7.40;3.60;;;-2.00;49.70;;;;;;5029554;28;20467;-50
2022/03/05 02:41:08;;;;;;;3.30;2.97;;;-2.00;56.40;;;;;;5031424;28;20817;-49
2022/03/05 02:43:35;;;;;;;3.63;3.40;;;-2.00;54.30;;;;;;5024799;28;20478;-49
2022/03/05 02:46:01;;;;;;;3.90;3.60;;;-2.10;59.50;;;;;;5024009;28;20460;-51
2022/03/05 02:48:28;;;;;;;4.80;3.27;;;-2.10;60.70;;;;;;5027426;28;20458;-51
2022/03/05 02:50:55;;;;;;;6.37;4.27;;;-2.00;56.30;;;;;;5029490;28;20471;-49
2022/03/05 02:53:21;;;;;;;10.07;4.60;;;-2.10;57.60;;;;;;5031624;28;20482;-50
2022/03/05 02:55:49;;;;;;;7.87;3.67;;;-2.10;57.90;;;;;;5031160;28;20836;-49
2022/03/05 02:58:16;;;;;;;7.77;4.30;;;-2.00;54.10;;;;;;5026232;28;20510;-50
2022/03/05 03:00:43;;;;;;;9.33;4.00;;;-2.00;50.50;;;;;;5028993;28;20476;-50
2022/03/05 03:03:10;;;;;;;4.33;3.30;;;-2.10;51.30;;;;;;5031064;28;20488;-49
2022/03/05 03:05:37;;;;;;;11.57;5.00;;;-2.10;52.80;;;;;;5057400;23;20520;-50
2022/03/05 03:08:04;;;;;;;6.20;3.80;;;-2.10;51.00;;;;;;5064029;28;20654;-50
2022/03/05 03:10:31;;;;;;;8.33;3.90;;;-2.10;58.00;;;;;;5068351;28;20913;-49
2022/03/05 03:12:59;;;;;;;5.07;4.30;;;-2.10;59.80;;;;;;5069991;28;20453;-50
2022/03/05 03:15:26;;;;;;;8.77;5.20;;;-2.00;62.60;;;;;;5070932;28;20512;-49
2022/03/05 03:17:54;;;;;;;6.83;4.60;;;-2.10;66.30;;;;;;5070493;28;20459;-50
2022/03/05 03:20:23;;;;;;;6.80;4.87;;;-2.00;62.10;;;;;;5066118;28;20503;-50
2022/03/05 03:22:51;;;;;;;6.10;4.10;;;-2.00;54.70;;;;;;5062725;28;20461;-50
2022/03/05 03:25:18;;;;;;;5.77;4.10;;;-2.00;54.90;;;;;;5069874;28;20453;-50
2022/03/05 03:27:44;;;;;;;6.97;4.83;;;-2.10;56.90;;;;;;5071013;28;20461;-50
2022/03/05 03:30:14;;;;;;;8.17;4.73;;;-2.10;59.10;;;;;;5065194;28;20485;-50
2022/03/05 03:32:42;;;;;;;6.10;4.37;;;-2.10;64.20;;;;;;5062758;28;20456;-50
2022/03/05 03:35:10;;;;;;;7.70;4.93;;;-2.20;61.80;;;;;;5065709;28;20997;-49
2022/03/05 03:37:37;;;;;;;5.53;4.43;;;-2.20;58.20;;;;;;5071070;28;20951;-50
2022/03/05 03:40:07;;;;;;;8.63;4.90;;;-2.20;54.10;;;;;;5066978;28;20507;-50
2022/03/05 03:42:34;;;;;;;8.87;5.20;;;-2.20;52.00;;;;;;5065483;28;20876;-50
2022/03/05 03:45:00;;;;;;;6.87;5.33;;;-2.20;51.90;;;;;;5063278;28;20980;-50
2022/03/05 03:47:28;;;;;;;5.80;4.00;;;-2.20;47.90;;;;;;5068056;28;20456;-51
2022/03/05 03:49:55;;;;;;;6.77;4.83;;;-2.20;51.80;;;;;;5069665;28;20456;-50
2022/03/05 03:52:22;;;;;;;6.77;4.40;;;-2.20;50.50;;;;;;5069534;28;20496;-50
2022/03/05 03:54:49;;;;;;;8.63;5.03;;;-2.20;45.50;;;;;;5070695;28;20783;-50
2022/03/05 03:57:17;;;;;;;10.70;5.90;;;-2.20;47.10;;;;;;5069842;28;20522;-50
2022/03/05 03:59:45;;;;;;;7.00;4.73;;;-2.30;52.10;;;;;;5059866;28;20449;-50
2022/03/05 04:02:11;;;;;;;8.83;5.00;;;-2.20;51.10;;;;;;5065255;28;20896;-50
2022/03/05 04:04:39;;;;;;;11.73;5.73;;;-2.20;45.60;;;;;;5069811;28;20457;-50
2022/03/05 04:09:50;;;;;;;11.27;6.10;;;-2.20;38.40;;;;;;5068059;28;20448;-49
2022/03/05 04:12:17;;;;;;;11.60;6.47;;;-2.20;29.90;;;;;;5070778;28;20518;-50
2022/03/05 04:14:44;;;;;;;10.33;4.73;;;-2.20;24.00;;;;;;5070544;28;20461;-50
2022/03/05 04:17:10;;;;;;;8.07;5.37;;;-2.20;99.90;;;;;;5065579;28;20526;-50
2022/03/05 04:19:39;;;;;;;7.57;5.33;;;-2.20;92.90;;;;;;5064696;28;20469;-50
2022/03/05 04:22:06;;;;;;;7.20;5.23;;;-2.20;99.90;;;;;;5067614;28;20479;-50
2022/03/05 04:24:33;;;;;;;8.70;6.07;;;-2.10;83.80;;;;;;5062011;28;20458;-50
2022/03/05 04:26:59;;;;;;;9.57;5.40;;;-2.10;20.60;;;;;;5069882;28;20507;-50
2022/03/05 04:29:26;;;;;;;6.30;5.70;;;-2.10;99.90;;;;;;5068849;28;20526;-50
2022/03/05 04:31:53;;;;;;;9.50;5.43;;;-2.10;99.90;;;;;;5061216;28;20510;-50
2022/03/05 04:34:20;;;;;;;9.90;5.00;;;-2.10;99.90;;;;;;5068854;28;20456;-50
2022/03/05 04:36:48;;;;;;;9.47;5.90;;;-2.10;99.90;;;;;;5068110;28;20484;-50
2022/03/05 04:39:15;;;;;;;11.03;5.73;;;-2.10;99.90;;;;;;5065248;28;20465;-49
2022/03/05 04:41:42;;;;;;;10.17;6.60;;;-2.10;99.90;;;;;;5063635;28;20588;-50
2022/03/05 04:44:09;;;;;;;9.60;5.93;;;-2.10;99.90;;;;;;5063982;28;20461;-51
2022/03/05 04:46:36;;;;;;;12.80;6.63;;;-2.10;99.90;;;;;;5068392;28;20519;-50
2022/03/05 04:49:03;;;;;;;8.77;5.90;;;-2.10;99.90;;;;;;5072518;28;20954;-50
2022/03/05 04:51:30;;;;;;;7.43;5.87;;;-2.10;99.90;;;;;;5074281;28;20542;-50
2022/03/05 04:53:57;;;;;;;11.67;6.70;;;-2.10;99.90;;;;;;5072731;28;20529;-52
2022/03/05 04:56:24;;;;;;;8.13;5.83;;;-2.10;99.90;;;;;;5067424;28;21005;-52
2022/03/05 04:58:51;;;;;;;10.83;6.33;;;-2.10;99.90;;;;;;5070303;28;20461;-51
2022/03/05 05:01:18;;;;;;;8.73;6.17;;;-2.10;99.90;;;;;;5061621;28;20507;-51
2022/03/05 05:03:45;;;;;;;8.97;6.30;;;-2.10;99.90;;;;;;5072518;28;20457;-52
2022/03/05 05:06:12;;;;;;;12.17;6.00;;;-2.10;99.90;;;;;;5074846;28;20549;-51
2022/03/05 05:08:39;;;;;;;11.50;6.70;;;-2.10;99.90;;;;;;5065793;28;20468;-52
2022/03/05 05:11:07;;;;;;;17.13;7.33;;;-2.20;99.90;;;;;;5068099;28;20481;-52
2022/03/05 05:13:33;;;;;;;12.77;6.53;;;-2.20;99.90;;;;;;5074160;28;20469;-52
2022/03/05 05:16:00;;;;;;;10.30;6.40;;;-2.20;99.90;;;;;;5073564;28;20900;-52
2022/03/05 05:18:27;;;;;;;14.83;6.60;;;-2.20;99.90;;;;;;5064695;28;20535;-51
2022/03/05 05:20:53;;;;;;;12.50;6.60;;;-2.30;99.90;;;;;;5068118;28;20460;-51
2022/03/05 05:23:20;;;;;;;10.13;6.37;;;-2.30;99.90;;;;;;5072784;28;20452;-51
2022/03/05 05:25:46;;;;;;;10.63;6.50;;;-2.30;99.90;;;;;;5069956;28;20613;-52
2022/03/05 05:28:14;;;;;;;10.27;7.03;;;-2.40;99.90;;;;;;5065662;28;20487;-52
2022/03/05 05:30:42;;;;;;;16.27;9.00;;;-2.40;99.90;;;;;;5071269;28;20484;-51
2022/03/05 05:33:09;;;;;;;14.47;8.50;;;-2.40;99.90;;;;;;5073514;28;20509;-51
2022/03/05 05:35:35;;;;;;;18.80;12.00;;;-2.40;99.90;;;;;;5073315;28;20550;-51
2022/03/05 05:38:02;;;;;;;17.40;12.17;;;-2.40;99.90;;;;;;5074008;28;20449;-51
2022/03/05 05:40:29;;;;;;;19.47;13.63;;;-2.40;99.90;;;;;;5068240;28;20458;-51
2022/03/05 05:42:56;;;;;;;22.73;12.30;;;-2.50;99.90;;;;;;5072298;28;20464;-52
2022/03/05 05:45:24;;;;;;;16.60;10.00;;;-2.40;99.90;;;;;;5071810;28;20481;-51
2022/03/05 05:47:50;;;;;;;15.20;9.63;;;-2.40;99.90;;;;;;5071458;28;21083;-51
2022/03/05 05:50:17;;;;;;;10.57;7.60;;;-2.30;99.90;;;;;;5071720;28;20457;-51
2022/03/05 05:52:44;;;;;;;11.67;8.50;;;-2.40;99.90;;;;;;5071297;28;21376;-52
2022/03/05 05:55:11;;;;;;;12.00;7.10;;;-2.40;99.90;;;;;;5070841;28;20461;-52
2022/03/05 05:57:37;;;;;;;11.67;8.17;;;-2.40;99.90;;;;;;5063189;28;20868;-53
2022/03/05 06:00:05;;;;;;;15.27;9.67;;;-2.40;99.90;;;;;;5064300;28;20465;-49
2022/03/05 06:02:33;;;;;;;14.73;9.33;;;-2.40;86.10;;;;;;5070597;28;20950;-51
2022/03/05 06:04:59;;;;;;;19.33;8.60;;;-2.50;23.60;;;;;;5073463;28;20465;-53
2022/03/05 06:07:26;;;;;;;11.40;8.07;;;-2.40;22.90;;;;;;5071858;28;20488;-52
2022/03/05 06:09:53;;;;;;;14.03;8.40;;;-2.40;21.30;;;;;;5069615;28;20458;-53
2022/03/05 06:12:19;;;;;;;12.70;8.40;;;-2.40;24.90;;;;;;5072804;28;20538;-53
2022/03/05 06:14:46;;;;;;;17.80;8.07;;;-2.40;28.40;;;;;;5072016;28;20461;-53
2022/03/05 06:17:12;;;;;;;14.90;8.07;;;-2.40;33.40;;;;;;5068966;28;20472;-51
2022/03/05 06:19:41;;;;;;;14.40;8.27;;;-2.40;36.50;;;;;;5071327;28;20976;-53
2022/03/05 06:22:08;;;;;;;10.80;8.00;;;-2.30;38.90;;;;;;5067050;28;20462;-53
2022/03/05 06:24:34;;;;;;;9.63;7.27;;;-2.30;39.20;;;;;;5065950;28;20457;-53
2022/03/05 06:27:01;;;;;;;12.50;8.17;;;-2.30;35.00;;;;;;5061573;28;20932;-53
2022/03/05 06:29:27;;;;;;;10.80;7.33;;;-2.20;34.30;;;;;;5070805;28;20570;-53
2022/03/05 06:31:54;;;;;;;11.47;7.57;;;-2.10;28.50;;;;;;5069841;28;20484;-52
2022/03/05 06:34:21;;;;;;;17.47;8.23;;;-2.10;29.80;;;;;;5069464;28;20457;-51
2022/03/05 06:36:49;;;;;;;16.53;9.17;;;-2.00;31.00;;;;;;5062958;28;20517;-53
2022/03/05 06:39:15;;;;;;;12.43;8.03;;;-1.90;34.60;;;;;;5064166;28;20461;-53
2022/03/05 06:41:42;;;;;;;16.27;9.70;;;-1.80;37.80;;;;;;5068924;28;20476;-53
2022/03/05 06:44:09;;;;;;;16.87;9.83;;;-1.80;43.60;;;;;;5071580;28;21031;-52
2022/03/05 06:46:35;;;;;;;14.90;10.40;;;-1.70;44.00;;;;;;5067863;28;20484;-53
2022/03/05 06:49:02;;;;;;;32.70;24.10;;;-1.60;43.30;;;;;;5070091;28;20526;-52
2022/03/05 06:51:29;;;;;;;29.67;22.93;;;-1.50;41.70;;;;;;5061771;28;20489;-53
2022/03/05 06:53:57;;;;;;;28.50;20.63;;;-1.30;51.20;;;;;;5061197;28;20535;-52
2022/03/05 06:56:24;;;;;;;21.53;13.20;;;-1.20;53.00;;;;;;5054142;28;20543;-52
2022/03/05 06:58:50;;;;;;;13.53;9.10;;;-1.20;50.20;;;;;;5063994;28;20966;-53
2022/03/05 07:01:17;;;;;;;14.37;9.80;;;-1.10;47.80;;;;;;5070451;28;20498;-52
2022/03/05 07:03:44;;;;;;;28.97;16.73;;;-1.00;37.80;;;;;;5062678;28;20460;-52
2022/03/05 07:06:10;;;;;;;21.90;15.00;;;-0.90;40.10;;;;;;5065670;28;20488;-53
2022/03/05 07:08:37;;;;;;;21.97;10.40;;;-0.80;48.90;;;;;;5071984;28;20456;-53
2022/03/05 07:11:05;;;;;;;11.73;8.03;;;-0.60;46.90;;;;;;5064421;28;20472;-51
2022/03/05 07:13:32;;;;;;;15.40;9.07;;;-0.40;53.80;;;;;;5065335;28;20488;-52
2022/03/05 07:15:58;;;;;;;13.63;8.23;;;-0.30;66.70;;;;;;5064036;28;20477;-52
2022/03/05 07:18:25;;;;;;;14.73;9.67;;;-0.30;73.40;;;;;;5072024;28;20506;-54
2022/03/05 07:20:52;;;;;;;12.90;9.00;;;-0.10;72.70;;;;;;5066923;28;20803;-52
2022/03/05 07:23:18;;;;;;;12.70;8.40;;;0.00;82.20;;;;;;5063446;28;20518;-53
2022/03/05 07:25:45;;;;;;;17.13;9.67;;;0.10;92.10;;;;;;5065638;28;20538;-53
2022/03/05 07:28:13;;;;;;;13.20;8.27;;;0.10;89.50;;;;;;5064263;28;20491;-51
2022/03/05 07:30:40;;;;;;;11.37;8.30;;;0.20;93.10;;;;;;5066842;28;21507;-52
2022/03/05 07:33:07;;;;;;;10.73;8.20;;;0.20;86.20;;;;;;5066080;28;20563;-52
2022/03/05 07:35:33;;;;;;;12.50;8.77;;;0.20;90.70;;;;;;5069383;28;20502;-52
2022/03/05 07:38:00;;;;;;;10.63;8.10;;;0.30;94.50;;;;;;5065526;28;20813;-53
2022/03/05 07:40:27;;;;;;;13.20;9.10;;;0.70;93.50;;;;;;5066334;28;20445;-52
2022/03/05 07:42:54;;;;;;;17.83;11.33;;;1.10;99.90;;;;;;5060922;28;21001;-52
2022/03/05 07:45:22;;;;;;;16.83;9.70;;;1.10;99.90;;;;;;5057387;28;20494;-52
2022/03/05 07:47:49;;;;;;;14.67;9.00;;;1.30;99.90;;;;;;5065935;28;20869;-52
2022/03/05 07:50:15;;;;;;;17.93;9.57;;;1.30;99.90;;;;;;5062391;28;20454;-52
2022/03/05 07:52:42;;;;;;;17.93;9.13;;;1.60;99.90;;;;;;5059415;28;20499;-52
2022/03/05 07:55:10;;;;;;;12.80;8.63;;;1.70;99.90;;;;;;5059234;28;20479;-52
2022/03/05 07:57:37;;;;;;;10.97;7.87;;;2.00;99.90;;;;;;5049416;28;20449;-51
2022/03/05 08:00:05;;;;;;;14.07;8.30;;;2.20;99.90;;;;;;5069161;28;20449;-51
2022/03/05 08:02:33;;;;;;;12.17;8.20;;;2.30;99.90;;;;;;5064434;28;20515;-52
2022/03/05 08:05:00;;;;;;;14.33;8.67;;;2.90;99.90;;;;;;5069696;28;20448;-52
2022/03/05 08:07:27;;;;;;;14.70;9.30;;;2.90;87.10;;;;;;5062630;28;20852;-52
2022/03/05 08:09:53;;;;;;;11.10;7.70;;;3.00;75.60;;;;;;5066348;28;20806;-52
2022/03/05 08:12:20;;;;;;;12.23;7.83;;;3.00;74.00;;;;;;5064775;28;20489;-52
2022/03/05 08:14:48;;;;;;;16.10;7.93;;;3.40;33.90;;;;;;5063426;28;20461;-52
2022/03/05 08:17:15;;;;;;;11.20;8.30;;;3.60;52.70;;;;;;5063348;28;20473;-52
2022/03/05 08:19:43;;;;;;;9.90;7.47;;;3.70;52.70;;;;;;5068549;28;20454;-53
2022/03/05 08:22:09;;;;;;;11.10;7.70;;;4.50;61.70;;;;;;5062572;28;20465;-52
2022/03/05 08:24:36;;;;;;;17.57;8.33;;;4.20;81.30;;;;;;5066814;28;20748;-52
2022/03/05 08:27:03;;;;;;;13.40;7.83;;;4.20;75.00;;;;;;5064021;28;20474;-52
2022/03/05 08:29:30;;;;;;;12.07;7.10;;;3.90;68.90;;;;;;5067155;28;20453;-52
2022/03/05 08:31:56;;;;;;;16.37;8.30;;;4.10;65.50;;;;;;5071315;28;20550;-52
2022/03/05 08:34:23;;;;;;;12.77;7.47;;;4.30;67.00;;;;;;5067337;28;20442;-52
2022/03/05 08:36:51;;;;;;;10.40;6.80;;;4.50;76.90;;;;;;5061683;28;21048;-52
2022/03/05 08:39:17;;;;;;;8.13;6.77;;;4.70;91.50;;;;;;5056759;28;20461;-52
2022/03/05 08:41:44;;;;;;;10.10;7.10;;;4.80;96.20;;;;;;5064185;28;20511;-51
2022/03/05 08:44:11;;;;;;;17.37;7.70;;;4.60;94.00;;;;;;5064007;28;20461;-53
2022/03/05 08:46:37;;;;;;;14.83;7.20;;;4.50;85.10;;;;;;5065166;28;20576;-54
2022/03/05 08:49:04;;;;;;;12.70;7.20;;;4.50;98.60;;;;;;5064688;28;20462;-53
2022/03/05 08:51:30;;;;;;;9.63;6.80;;;4.40;93.80;;;;;;5068930;28;20457;-52
2022/03/05 08:53:58;;;;;;;11.67;7.70;;;4.70;96.00;;;;;;5069087;28;21143;-51
2022/03/05 08:56:25;;;;;;;9.80;7.23;;;5.10;99.90;;;;;;5060112;28;20478;-52
2022/03/05 08:58:52;;;;;;;14.07;8.10;;;5.20;99.90;;;;;;5056700;28;20956;-52
2022/03/05 09:01:20;;;;;;;11.83;7.40;;;5.30;99.90;;;;;;5055633;28;20957;-52
2022/03/05 09:03:46;;;;;;;9.40;7.40;;;4.90;99.90;;;;;;5056508;28;20465;-53
2022/03/05 09:06:13;;;;;;;10.80;7.40;;;5.70;99.90;;;;;;5063865;28;20537;-53
2022/03/05 09:08:40;;;;;;;15.70;7.10;;;5.60;99.90;;;;;;5064722;28;20466;-51
2022/03/05 09:11:08;;;;;;;9.40;7.37;;;6.50;99.90;;;;;;5064413;28;20962;-50
2022/03/05 09:13:35;;;;;;;10.80;7.27;;;6.40;99.90;;;;;;5064717;28;20531;-51
2022/03/05 09:16:01;;;;;;;10.80;7.80;;;6.60;99.90;;;;;;5065173;28;20526;-50
2022/03/05 09:18:28;;;;;;;15.10;8.60;;;7.10;99.90;;;;;;5066449;28;20830;-50
2022/03/05 09:20:55;;;;;;;14.73;7.87;;;7.60;99.90;;;;;;5066493;28;20450;-51
2022/03/05 09:23:22;;;;;;;13.90;8.67;;;7.20;99.90;;;;;;5052498;28;20989;-51
2022/03/05 09:25:49;;;;;;;9.77;7.00;;;7.80;99.90;;;;;;5056179;28;20998;-51
2022/03/05 09:28:17;;;;;;;17.43;7.57;;;8.10;99.90;;;;;;5062238;28;20794;-50
2022/03/05 09:30:43;;;;;;;16.37;13.50;;;8.40;99.90;;;;;;5063141;28;20446;-50
2022/03/05 09:33:11;;;;;;;10.70;8.50;;;8.60;99.90;;;;;;5059118;28;20565;-50
2022/03/05 09:35:38;;;;;;;21.80;11.90;;;9.20;99.90;;;;;;5066801;28;20484;-50
2022/03/05 09:38:05;;;;;;;16.90;11.03;;;9.50;99.90;;;;;;5063701;28;20461;-50
2022/03/05 09:40:32;;;;;;;18.17;8.77;;;9.20;99.90;;;;;;5065575;28;20953;-50
2022/03/05 09:43:01;;;;;;;15.07;8.53;;;8.40;99.90;;;;;;5070137;28;20514;-51
2022/03/05 09:45:29;;;;;;;12.03;7.70;;;7.80;1.40;;;;;;5066712;28;20476;-51
2022/03/05 09:47:57;;;;;;;19.00;12.60;;;7.80;99.90;;;;;;5062405;28;20469;-50
2022/03/05 09:50:25;;;;;;;42.93;22.57;;;8.30;99.90;;;;;;5064469;28;20514;-51
2022/03/05 09:52:52;;;;;;;21.10;16.10;;;7.90;99.90;;;;;;5079755;28;20510;-51
2022/03/05 09:55:18;;;;;;;15.70;10.47;;;7.20;99.90;;;;;;5071010;28;20893;-51
2022/03/05 09:57:45;;;;;;;14.90;10.90;;;6.90;99.90;;;;;;5064774;28;20469;-51
2022/03/05 10:00:12;;;;;;;14.83;8.73;;;7.50;99.90;;;;;;5070428;28;20872;-50
2022/03/05 10:02:41;;;;;;;13.50;8.87;;;8.00;99.90;;;;;;5064994;28;20468;-50
2022/03/05 10:05:20;;;;;;;8.70;7.00;;;8.00;99.90;;;;;;5058384;28;20876;-50
2022/03/05 10:08:01;;;;;;;15.90;9.10;;;8.30;99.90;;;;;;5066963;28;20469;-50
2022/03/05 10:10:29;;;;;;;14.10;7.50;;;7.40;99.90;;;;;;5066296;28;21235;-51
2022/03/05 10:12:56;;;;;;;12.00;7.47;;;7.90;99.90;;;;;;5069660;28;20481;-51
2022/03/05 10:15:22;;;;;;;11.07;7.40;;;8.50;99.90;;;;;;5064353;28;20461;-50
2022/03/05 10:17:53;;;;;;;10.03;7.40;;;8.10;99.90;;;;;;5061722;28;20461;-51
2022/03/05 10:20:21;;;;;;;12.53;7.03;;;8.10;99.90;;;;;;5069121;28;20465;-51
2022/03/05 10:22:59;;;;;;;14.13;8.03;;;7.70;99.90;;;;;;5063256;28;20449;-51
2022/03/05 10:25:37;;;;;;;12.00;8.43;;;8.90;99.90;;;;;;5066460;28;20810;-51
2022/03/05 10:28:09;;;;;;;10.40;7.43;;;10.40;99.90;;;;;;5070428;28;20538;-51
2022/03/05 10:30:38;;;;;;;12.77;9.10;;;10.80;99.90;;;;;;5072372;28;20486;-51
2022/03/05 10:33:07;;;;;;;11.27;7.80;;;9.40;99.90;;;;;;5070906;28;20606;-50
2022/03/05 10:35:34;;;;;;;25.80;16.50;;;9.70;99.90;;;;;;5068411;28;20507;-51
2022/03/05 10:38:02;;;;;;;23.30;16.43;;;9.30;99.90;;;;;;5064249;28;20515;-51
2022/03/05 10:40:30;;;;;;;11.93;8.33;;;8.20;99.90;;;;;;5070289;28;20470;-51
2022/03/05 10:43:00;;;;;;;12.63;7.80;;;7.50;99.90;;;;;;5065830;28;20512;-51
2022/03/05 10:45:29;;;;;;;16.53;13.80;;;7.10;99.90;;;;;;5071191;28;20997;-52
2022/03/05 10:47:57;;;;;;;12.80;10.90;;;6.80;99.90;;;;;;5069797;28;20552;-51
2022/03/05 10:50:28;;;;;;;12.40;8.60;;;6.50;99.90;;;;;;5070846;28;20449;-50
2022/03/05 10:52:57;;;;;;;17.13;12.90;;;6.00;99.90;;;;;;5060138;28;20480;-50
2022/03/05 10:55:26;;;;;;;10.13;7.47;;;5.90;99.90;;;;;;5069378;28;20437;-52
2022/03/05 10:58:01;;;;;;;8.70;7.30;;;5.50;99.90;;;;;;5068592;28;20515;-51
2022/03/05 11:00:28;;;;;;;9.70;6.93;;;5.50;99.90;;;;;;5071658;28;20444;-50
2022/03/05 11:02:57;;;;;;;6.70;6.00;;;5.20;99.90;;;;;;5070668;28;20457;-56
2022/03/05 11:05:26;;;;;;;9.43;6.73;;;5.10;99.90;;;;;;5075351;28;21292;-51
2022/03/05 11:07:54;;;;;;;7.00;6.30;;;5.10;99.90;;;;;;5071618;28;20830;-52
2022/03/05 11:10:29;;;;;;;10.63;6.23;;;5.20;99.90;;;;;;5071667;28;20833;-51
2022/03/05 11:12:59;;;;;;;11.63;6.23;;;5.10;99.90;;;;;;5070729;28;21058;-50
2022/03/05 11:15:27;;;;;;;9.43;6.40;;;5.20;99.90;;;;;;5071173;28;20506;-55
2022/03/05 11:17:54;;;;;;;11.80;9.60;;;5.50;99.90;;;;;;5070247;28;20502;-50
2022/03/05 11:20:21;;;;;;;8.57;5.83;;;5.70;99.90;;;;;;5070287;28;20857;-51
2022/03/05 11:22:50;;;;;;;32.17;24.27;;;6.20;99.90;;;;;;5062902;28;20460;-51
2022/03/05 11:25:20;;;;;;;10.80;6.43;;;7.10;99.90;;;;;;5059848;28;20947;-51
2022/03/05 11:28:04;;;;;;;9.70;5.80;;;7.30;99.90;;;;;;5073709;28;20453;-51
2022/03/05 11:30:41;;;;;;;18.23;8.90;;;6.70;99.90;;;;;;5071790;28;20984;-51
2022/03/05 11:33:11;;;;;;;7.13;6.43;;;7.40;99.90;;;;;;5070523;28;20982;-51
2022/03/05 11:35:42;;;;;;;6.07;4.70;;;8.20;99.90;;;;;;5070429;28;20518;-51
2022/03/05 11:38:36;;;;;;;5.77;5.30;;;7.70;99.90;;;;;;5069584;28;20457;-51
2022/03/05 11:41:22;;;;;;;8.97;5.77;;;7.30;99.90;;;;;;5071581;28;20461;-51
2022/03/05 11:43:49;;;;;;;5.73;5.13;;;7.50;99.90;;;;;;5065817;28;20453;-51
2022/03/05 11:46:23;;;;;;;6.83;4.83;;;7.10;99.90;;;;;;5071395;28;20582;-50
2022/03/05 11:49:01;;;;;;;6.20;4.83;;;7.20;1.40;;;;;;5063995;28;20814;-51
2022/03/05 11:51:27;;;;;;;7.17;4.40;;;6.90;99.90;;;;;;5071697;28;20952;-51
2022/03/05 11:54:06;;;;;;;12.77;11.47;;;6.60;99.90;;;;;;5071808;28;20480;-51
2022/03/05 11:56:32;;;;;;;7.50;5.50;;;6.00;99.90;;;;;;5071422;28;20468;-51
2022/03/05 11:59:30;;;;;;;8.50;4.37;;;6.10;99.90;;;;;;5070391;28;20457;-51
2022/03/05 12:01:57;;;;;;;10.33;6.73;;;5.90;99.90;;;;;;5062933;28;20468;-51
2022/03/05 12:04:27;;;;;;;10.17;7.60;;;5.80;99.90;;;;;;5071351;28;20445;-50
2022/03/05 12:06:57;;;;;;;73.53;51.90;;;5.80;99.90;;;;;;5071204;28;20891;-51
2022/03/05 12:09:54;;;;;;;7.93;6.20;;;5.70;99.90;;;;;;5056601;28;20442;-51
2022/03/05 12:12:21;;;;;;;4.87;4.37;;;5.40;99.90;;;;;;5069102;28;20453;-51
2022/03/05 12:15:14;;;;;;;6.67;4.00;;;5.30;99.90;;;;;;5071516;28;20457;-51
2022/03/05 12:17:49;;;;;;;5.57;4.43;;;5.50;99.90;;;;;;5070423;28;20557;-51
2022/03/05 12:20:18;;;;;;;6.73;4.60;;;5.70;99.90;;;;;;5070088;28;20513;-51
2022/03/05 12:22:50;;;;;;;4.50;4.07;;;5.80;99.90;;;;;;5070845;28;20448;-51
2022/03/05 12:25:17;;;;;;;9.07;4.43;;;6.40;99.90;;;;;;5071703;28;20491;-50
2022/03/05 12:27:50;;;;;;;5.70;3.50;;;8.00;99.90;;;;;;5070241;28;20461;-51
2022/03/05 12:30:19;;;;;;;3.73;3.33;;;8.90;99.90;;;;;;5071570;28;20475;-51
2022/03/05 12:32:47;;;;;;;9.63;4.17;;;8.20;99.90;;;;;;5070259;28;20480;-51
2022/03/05 12:35:56;;;;;;;13.70;4.27;;;7.70;99.90;;;;;;5070480;28;20457;-51
2022/03/05 12:38:23;;;;;;;7.70;3.87;;;7.80;99.90;;;;;;5067701;28;20453;-51
2022/03/05 12:40:50;;;;;;;3.43;3.13;;;8.20;99.90;;;;;;5067124;28;20535;-51
2022/03/05 12:43:17;;;;;;;4.10;3.60;;;8.20;99.90;;;;;;5069937;28;20449;-51
2022/03/05 12:45:46;;;;;;;3.50;3.27;;;8.30;99.90;;;;;;5070907;28;20488;-51
2022/03/05 12:48:14;;;;;;;3.37;3.00;;;8.40;99.90;;;;;;5070530;28;20463;-50
2022/03/05 12:50:42;;;;;;;3.53;3.23;;;7.60;99.90;;;;;;5070795;28;20449;-51
2022/03/05 12:53:10;;;;;;;3.50;2.60;;;7.20;99.90;;;;;;5066617;28;20512;-51